This is the latest recevied weather packets stored in our database for station/object K6MLE. If no packets are shown the sender has not sent any weather packets the latest 10 day(s).
| Time | Temp. | Humidity | Pressure | Rain* | Wind** | Luminosity | Snow |
|---|---|---|---|---|---|---|---|
| 1777411216 | 16.67° C | 62% | 1018.5 hPa | 0 mm | - | - | - |
| 1777405816 | 16.67° C | 59% | 1019 hPa | 0 mm | - | - | - |
| 1777404016 | 16.67° C | 56% | 1019.3 hPa | 0 mm | - | - | - |
| 1777395016 | 13.33° C | 67% | 1019.9 hPa | 0 mm | - | - | - |
| 1777387836 | 5° C | 96% | 1018.6 hPa | 0 mm | - | - | - |
| 1777386636 | 4.44° C | 95% | 1018.5 hPa | 0 mm | - | - | - |
| 1777383016 | 3.89° C | 95% | 1017.6 hPa | 0.25 mm | - | - | - |
| 1777381816 | 3.89° C | 95% | 1017.5 hPa | 0.25 mm | - | - | - |
| 1777381221 | 3.89° C | 95% | 1017.5 hPa | 0.25 mm | - | - | - |
| 1777378216 | 3.89° C | 94% | 1017.4 hPa | 0 mm | - | - | - |
| 1777374015 | 4.44° C | 94% | 1017.2 hPa | 0 mm | - | - | - |
| 1777369217 | 5° C | 94% | 1018 hPa | 0 mm | - | - | - |
| 1777368617 | 5° C | 94% | 1018.1 hPa | 0 mm | - | - | - |
| 1777364437 | 5.56° C | 93% | 1018.5 hPa | 0 mm | - | - | - |
| 1777362617 | 6.11° C | 93% | 1018.8 hPa | 0 mm | - | - | - |
| 1777353017 | 8.89° C | 91% | 1018 hPa | 0 mm | - | - | - |
| 1777342217 | 11.67° C | 84% | 1015.8 hPa | 0 mm | - | - | - |
| 1777337417 | 11.67° C | 83% | 1015.7 hPa | 0 mm | - | - | - |
| 1777335637 | 12.22° C | 80% | 1015.6 hPa | 0 mm | - | - | - |
| 1777332617 | 13.89° C | 66% | 1015.5 hPa | 0 mm | - | - | - |
| 1777331416 | 14.44° C | 63% | 1015.5 hPa | 0 mm | - | - | - |
| 1777329617 | 15.56° C | 59% | 1015.6 hPa | 0 mm | - | - | - |
| 1777329017 | 15° C | 62% | 1015.6 hPa | 0 mm | - | - | - |
| 1777326016 | 15.56° C | 60% | 1016 hPa | 0 mm | - | - | - |
| 1777325457 | 15° C | 59% | 1016 hPa | 0 mm | - | - | - |
* Rain latest hour (hover to see other rain measurements)
** Current wind speed in m/s (hover to see current wind gust speed)